Time;durP1;ratioP1;P1;durP2;ratioP2;P2;SDS_P1;SDS_P2;PMS_P1;PMS_P2;Temp;Humidity;BMP_temperature;BMP_pressure;BME280_temperature;BME280_humidity;BME280_pressure;Samples;Min_cycle;Max_cycle;Signal;HPM_P1;HPM_P2
2023/11/29 00:00:44;;;;;;;;;;;;;;;25.65;40.27;93289.78;4846981;29;7171;-64
2023/11/29 00:03:15;;;;;;;;;;;;;;;25.66;40.11;93291.28;4810514;29;7252;-64
2023/11/29 00:06:15;;;;;;;;;;;;;;;25.60;40.88;93293.41;4808035;29;7246;-63
2023/11/29 00:09:14;;;;;;;;;;;;;;;25.59;40.68;93296.72;4831713;29;8640;-64
2023/11/29 00:11:40;;;;;;;;;;;;;;;25.59;40.88;93291.19;4772566;30;8820;-63
2023/11/29 00:14:42;;;;;;;;;;;;;;;25.57;41.00;93289.00;4778131;29;7827;-63
2023/11/29 00:17:40;;;;;;;;;;;;;;;25.64;40.60;93287.59;4823141;29;9067;-64
2023/11/29 00:20:22;;;;;;;;;;;;;;;25.65;40.65;93294.56;4783838;29;8555;-64
2023/11/29 00:23:06;;;;;;;;;;;;;;;25.64;40.25;93285.56;4826410;29;7053;-61
2023/11/29 00:26:07;;;;;;;;;;;;;;;25.64;40.27;93282.06;4853843;29;7836;-61
2023/11/29 00:28:42;;;;;;;;;;;;;;;25.62;40.18;93274.34;4884671;29;8718;-61
2023/11/29 00:31:16;;;;;;;;;;;;;;;25.65;40.29;93281.53;4884531;29;9095;-61
2023/11/29 00:33:51;;;;;;;;;;;;;;;25.65;40.73;93287.03;4874793;29;7094;-61
2023/11/29 00:36:17;;;;;;;;;;;;;;;25.62;40.58;93284.63;4889323;29;8774;-61
2023/11/29 00:39:30;;;;;;;;;;;;;;;25.65;40.32;93287.03;4907725;29;9108;-61
2023/11/29 00:42:08;;;;;;;;;;;;;;;25.64;40.69;93293.84;4870397;29;7203;-61
2023/11/29 00:44:35;;;;;;;;;;;;;;;25.65;40.75;93295.28;4877367;29;7289;-61
2023/11/29 00:47:44;;;;;;;;;;;;;;;25.66;40.22;93288.53;4868315;29;7067;-61
2023/11/29 00:50:11;;;;;;;;;;;;;;;25.65;40.69;93289.03;4891409;29;7370;-61
2023/11/29 00:52:47;;;;;;;;;;;;;;;25.65;40.24;93283.53;4881144;29;9330;-61
2023/11/29 00:55:14;;;;;;;;;;;;;;;25.65;40.75;93286.28;4905145;29;7132;-62
2023/11/29 00:57:40;;;;;;;;;;;;;;;25.64;40.93;93287.59;4953114;28;7302;-62
2023/11/29 01:00:07;;;;;;;;;;;;;;;25.64;40.19;93285.56;4948289;28;7249;-62
2023/11/29 01:02:34;;;;;;;;;;;;;;;25.64;40.67;93288.31;4934941;28;7117;-62
2023/11/29 01:05:02;;;;;;;;;;;;;;;25.63;40.72;93292.34;4964389;28;7423;-62
2023/11/29 01:07:49;;;;;;;;;;;;;;;25.64;41.02;93282.81;4931526;28;7300;-62
2023/11/29 01:10:24;;;;;;;;;;;;;;;25.63;40.83;93292.34;4936009;28;7101;-62
2023/11/29 01:12:52;;;;;;;;;;;;;;;25.64;40.99;93290.34;4941885;28;6973;-62
2023/11/29 01:15:19;;;;;;;;;;;;;;;25.63;40.30;93292.34;4945868;28;7073;-62
2023/11/29 01:17:47;;;;;;;;;;;;;;;25.64;40.25;93293.09;4964022;28;7294;-62
2023/11/29 01:20:26;;;;;;;;;;;;;;;25.61;40.41;93289.38;5075931;28;8993;-62
2023/11/29 01:23:01;;;;;;;;;;;;;;;25.61;40.83;93289.38;5047127;28;6972;-61
2023/11/29 01:25:31;;;;;;;;;;;;;;;25.64;40.74;93295.84;5057551;28;7166;-62
2023/11/29 01:27:58;;;;;;;;;;;;;;;25.64;40.49;93295.84;5077412;28;7207;-61
2023/11/29 01:30:28;;;;;;;;;;;;;;;25.63;40.65;93299.84;5058262;28;9105;-61
2023/11/29 01:33:21;;;;;;;;;;;;;;;25.64;40.68;93304.84;5052609;28;7290;-64
2023/11/29 01:35:56;;;;;;;;;;;;;;;25.61;40.21;93292.16;5059691;28;7228;-64
2023/11/29 01:38:34;;;;;;;;;;;;;;;25.62;40.29;93296.34;5055479;28;7865;-64
2023/11/29 01:41:18;;;;;;;;;;;;;;;25.62;40.39;93301.88;5059650;28;9469;-64
2023/11/29 01:43:47;;;;;;;;;;;;;;;25.64;40.34;93298.59;5051473;28;7324;-64
2023/11/29 01:46:23;;;;;;;;;;;;;;;25.63;40.55;93305.38;5054056;28;7276;-64
2023/11/29 01:48:57;;;;;;;;;;;;;;;25.63;40.68;93299.84;5056954;28;7069;-64
2023/11/29 01:51:35;;;;;;;;;;;;;;;25.62;40.54;93301.16;5073858;28;9448;-63
2023/11/29 01:54:51;;;;;;;;;;;;;;;25.64;40.92;93310.34;5047705;28;7205;-64
2023/11/29 01:57:25;;;;;;;;;;;;;;;25.64;40.49;93304.84;5085286;28;10173;-63
2023/11/29 01:59:58;;;;;;;;;;;;;;;25.63;40.38;93297.84;5074003;28;7477;-64
2023/11/29 02:02:33;;;;;;;;;;;;;;;25.63;41.03;93294.34;5073457;28;7300;-63
2023/11/29 02:05:17;;;;;;;;;;;;;;;25.64;41.01;93298.59;5072112;28;9037;-63
2023/11/29 02:07:53;;;;;;;;;;;;;;;25.65;40.40;93297.31;5061150;28;6991;-64
2023/11/29 02:10:44;;;;;;;;;;;;;;;25.64;40.89;93304.84;5053006;28;7279;-64
2023/11/29 02:13:21;;;;;;;;;;;;;;;25.63;40.67;93302.63;5078304;28;8579;-63
2023/11/29 02:15:47;;;;;;;;;;;;;;;25.63;40.90;93305.38;5063350;28;7233;-64
2023/11/29 02:18:33;;;;;;;;;;;;;;;25.65;40.95;93306.31;5056000;28;7254;-63
2023/11/29 02:21:13;;;;;;;;;;;;;;;25.60;40.69;93298.91;5062131;28;7104;-63
2023/11/29 02:24:06;;;;;;;;;;;;;;;25.64;41.08;93299.34;5064104;28;7367;-63
2023/11/29 02:26:37;;;;;;;;;;;;;;;25.64;40.74;93293.09;5065380;28;7003;-63
2023/11/29 02:29:03;;;;;;;;;;;;;;;25.63;40.76;93288.84;5055503;28;7364;-63
2023/11/29 02:31:29;;;;;;;;;;;;;;;25.60;40.85;93290.66;5072241;28;9160;-63
2023/11/29 02:33:55;;;;;;;;;;;;;;;25.63;41.06;93291.59;5069831;28;7517;-64
2023/11/29 02:36:25;;;;;;;;;;;;;;;25.63;40.30;93297.84;5058779;28;7303;-64
2023/11/29 02:38:58;;;;;;;;;;;;;;;25.62;41.07;93293.59;5061885;28;9953;-64
2023/11/29 02:42:10;;;;;;;;;;;;;;;25.63;40.26;93308.88;5081147;28;7451;-64
2023/11/29 02:44:40;;;;;;;;;;;;;;;25.64;40.73;93301.34;5076710;28;6999;-61
2023/11/29 02:47:07;;;;;;;;;;;;;;;25.61;40.21;93300.41;5059166;28;6992;-62
2023/11/29 02:49:49;;;;;;;;;;;;;;;25.62;40.75;93303.91;5057364;28;8042;-62
2023/11/29 02:52:32;;;;;;;;;;;;;;;25.62;40.45;93304.63;5072479;28;7352;-61
2023/11/29 02:55:27;;;;;;;;;;;;;;;25.63;40.72;93306.13;5075251;28;7279;-61
2023/11/29 02:58:05;;;;;;;;;;;;;;;25.64;40.90;93304.84;4997712;28;7002;-61
2023/11/29 03:00:32;;;;;;;;;;;;;;;25.61;40.21;93305.16;5000310;28;7439;-61
2023/11/29 03:03:14;;;;;;;;;;;;;;;25.60;40.88;93307.19;4988373;28;7524;-63
2023/11/29 03:06:07;;;;;;;;;;;;;;;25.64;40.17;93309.63;4997917;28;6995;-61
2023/11/29 03:08:43;;;;;;;;;;;;;;;25.64;40.54;93313.13;4997750;28;7124;-61
2023/11/29 03:11:40;;;;;;;;;;;;;;;25.63;40.69;93305.38;4993670;28;7511;-61
2023/11/29 03:14:10;;;;;;;;;;;;;;;25.62;40.91;93304.63;5009149;28;7289;-61
2023/11/29 03:16:53;;;;;;;;;;;;;;;25.59;40.69;93291.94;4986015;28;9106;-61
2023/11/29 03:19:31;;;;;;;;;;;;;;;25.62;40.94;93301.88;4985571;28;9063;-61
2023/11/29 03:21:59;;;;;;;;;;;;;;;25.60;40.86;93287.91;4988660;28;9170;-61
2023/11/29 03:24:27;;;;;;;;;;;;;;;25.64;40.29;93293.09;4998680;28;8168;-62
2023/11/29 03:27:06;;;;;;;;;;;;;;;25.61;40.67;93289.38;4994718;28;7164;-61
2023/11/29 03:29:33;;;;;;;;;;;;;;;25.63;40.26;93286.84;5004989;28;7121;-61
2023/11/29 03:32:10;;;;;;;;;;;;;;;25.62;40.53;93285.34;5006610;28;7227;-61
2023/11/29 03:34:51;;;;;;;;;;;;;;;25.63;40.37;93288.84;5034019;28;6900;-61
2023/11/29 03:37:20;;;;;;;;;;;;;;;25.62;39.89;93285.34;5055563;28;9207;-61
2023/11/29 03:39:48;;;;;;;;;;;;;;;25.63;40.84;93281.34;5056040;28;7002;-61
2023/11/29 03:42:20;;;;;;;;;;;;;;;25.60;40.20;93274.13;5077614;28;8790;-61
2023/11/29 03:45:06;;;;;;;;;;;;;;;25.62;40.10;93268.81;5060987;28;7332;-61
2023/11/29 03:47:32;;;;;;;;;;;;;;;25.61;40.46;93272.88;5078528;28;9439;-61
2023/11/29 03:50:31;;;;;;;;;;;;;;;25.60;40.38;93276.88;5050261;28;9149;-61
2023/11/29 03:53:23;;;;;;;;;;;;;;;25.62;40.26;93268.81;5066789;28;8784;-64
2023/11/29 03:55:50;;;;;;;;;;;;;;;25.60;40.69;93270.66;5060309;28;7403;-65
2023/11/29 03:58:21;;;;;;;;;;;;;;;25.61;40.12;93266.63;5046119;28;7012;-65
2023/11/29 04:00:47;;;;;;;;;;;;;;;25.62;40.66;93274.34;5073490;28;8624;-64
2023/11/29 04:03:30;;;;;;;;;;;;;;;25.60;40.79;93263.13;5079893;28;7024;-64
2023/11/29 04:06:03;;;;;;;;;;;;;;;25.61;40.91;93264.59;5041313;28;8745;-65
2023/11/29 04:08:35;;;;;;;;;;;;;;;25.59;39.97;93264.41;5076866;28;7609;-64
2023/11/29 04:11:15;;;;;;;;;;;;;;;25.60;40.68;93274.13;5049220;28;7110;-65
2023/11/29 04:13:51;;;;;;;;;;;;;;;25.60;40.22;93274.13;5073366;28;7001;-65
2023/11/29 04:16:33;;;;;;;;;;;;;;;25.58;40.48;93273.94;5071968;28;7012;-65
2023/11/29 04:19:31;;;;;;;;;;;;;;;25.60;40.34;93274.13;5056857;28;9381;-64
2023/11/29 04:22:07;;;;;;;;;;;;;;;25.60;40.06;93276.88;5013520;28;7208;-64
2023/11/29 04:24:35;;;;;;;;;;;;;;;25.58;40.13;93262.91;5013880;28;7228;-65
2023/11/29 04:27:20;;;;;;;;;;;;;;;25.61;40.67;93266.63;4986493;28;9121;-65
2023/11/29 04:29:57;;;;;;;;;;;;;;;25.59;39.92;93256.16;5007237;28;7208;-65
2023/11/29 04:32:54;;;;;;;;;;;;;;;25.59;40.54;93267.16;4985684;28;9230;-65
2023/11/29 04:35:30;;;;;;;;;;;;;;;25.59;40.12;93264.41;5005563;28;9104;-64
2023/11/29 04:38:31;;;;;;;;;;;;;;;25.59;40.43;93258.16;4995362;28;6999;-65
2023/11/29 04:41:16;;;;;;;;;;;;;;;25.59;40.67;93267.16;4962005;28;9441;-65
2023/11/29 04:43:53;;;;;;;;;;;;;;;25.56;40.29;93257.22;4963550;28;7267;-65
2023/11/29 04:46:19;;;;;;;;;;;;;;;25.55;40.59;93258.50;4957121;28;9007;-64
2023/11/29 04:48:46;;;;;;;;;;;;;;;25.58;40.11;93257.41;4982379;28;7834;-65
2023/11/29 04:51:16;;;;;;;;;;;;;;;25.55;39.92;93246.75;4960465;28;7051;-64
2023/11/29 04:53:52;;;;;;;;;;;;;;;25.58;40.33;93248.44;4968787;28;7064;-65
2023/11/29 04:56:19;;;;;;;;;;;;;;;25.58;40.11;93246.41;4974239;28;7610;-65
2023/11/29 04:58:47;;;;;;;;;;;;;;;25.58;40.16;93254.66;4980940;28;7133;-65
2023/11/29 05:01:14;;;;;;;;;;;;;;;25.60;39.86;93254.84;5014345;28;7226;-65
2023/11/29 05:03:50;;;;;;;;;;;;;;;25.58;40.63;93245.69;5020336;28;7089;-63
2023/11/29 05:06:41;;;;;;;;;;;;;;;25.58;40.55;93251.91;4986884;28;7234;-64
2023/11/29 05:09:08;;;;;;;;;;;;;;;25.59;40.38;93258.91;5013411;28;7315;-63
2023/11/29 05:11:37;;;;;;;;;;;;;;;25.60;40.50;93259.66;5007734;28;7227;-64
2023/11/29 05:14:28;;;;;;;;;;;;;;;25.60;39.84;93259.66;5013933;28;8972;-63
2023/11/29 05:17:32;;;;;;;;;;;;;;;25.61;39.92;93266.63;5052504;28;8343;-63
2023/11/29 05:20:09;;;;;;;;;;;;;;;25.60;40.38;93259.66;5050535;28;7222;-63
2023/11/29 05:22:35;;;;;;;;;;;;;;;25.56;39.90;93270.97;5070952;28;9411;-63
2023/11/29 05:25:06;;;;;;;;;;;;;;;25.59;40.42;93275.41;5059135;28;6866;-63
2023/11/29 05:27:32;;;;;;;;;;;;;;;25.57;39.91;93275.22;5072637;28;7074;-63
2023/11/29 05:30:30;;;;;;;;;;;;;;;25.59;40.60;93278.19;5068485;28;7708;-64
2023/11/29 05:33:05;;;;;;;;;;;;;;;25.60;40.27;93279.63;5068813;28;7325;-63
2023/11/29 05:35:47;;;;;;;;;;;;;;;25.61;40.50;93272.88;5065795;28;7249;-64
2023/11/29 05:38:24;;;;;;;;;;;;;;;25.69;40.49;93283.94;5059533;28;8063;-63
2023/11/29 05:41:07;;;;;;;;;;;;;;;25.66;40.63;93280.25;5059392;28;7908;-64
2023/11/29 05:43:51;;;;;;;;;;;;;;;25.69;40.08;93275.66;5047798;28;7054;-64
2023/11/29 05:46:32;;;;;;;;;;;;;;;25.68;40.04;93271.47;5055528;28;7076;-64
2023/11/29 05:49:11;;;;;;;;;;;;;;;25.68;40.09;93271.47;5056750;28;7266;-64
2023/11/29 05:51:48;;;;;;;;;;;;;;;25.65;40.03;93267.75;5047175;28;9060;-64
2023/11/29 05:54:21;;;;;;;;;;;;;;;25.63;40.64;93273.06;5051682;28;7198;-65
2023/11/29 05:56:57;;;;;;;;;;;;;;;25.64;40.43;93273.81;5053884;28;7011;-65
2023/11/29 05:59:32;;;;;;;;;;;;;;;25.69;40.58;93281.19;5053253;28;7424;-64
2023/11/29 06:01:59;;;;;;;;;;;;;;;25.70;40.49;93277.91;5058948;28;7261;-64
2023/11/29 06:04:27;;;;;;;;;;;;;;;25.71;40.37;93287.63;5046565;28;9543;-64
2023/11/29 06:06:54;;;;;;;;;;;;;;;25.70;40.37;93288.94;5031831;28;8793;-63
2023/11/29 06:09:54;;;;;;;;;;;;;;;25.70;40.48;93288.19;5054533;28;8993;-64
2023/11/29 06:12:21;;;;;;;;;;;;;;;25.67;40.11;93298.25;5002386;28;9089;-64
2023/11/29 06:14:58;;;;;;;;;;;;;;;25.73;40.74;93293.34;5011988;28;7065;-64
2023/11/29 06:17:50;;;;;;;;;;;;;;;25.78;39.85;93295.22;4991162;28;7050;-64
2023/11/29 06:20:27;;;;;;;;;;;;;;;25.82;40.32;93286.63;5010500;28;7375;-64
2023/11/29 06:22:55;;;;;;;;;;;;;;;25.86;39.57;93298.06;4999006;28;8927;-64
2023/11/29 06:28:47;;;;;;;;;;;;;;;25.89;39.53;93294.22;5009834;28;9060;-63
2023/11/29 06:31:13;;;;;;;;;;;;;;;25.90;39.50;93293.66;4993723;28;9134;-63
2023/11/29 06:33:47;;;;;;;;;;;;;;;25.89;39.96;93296.97;5015949;28;7451;-64
2023/11/29 06:37:00;;;;;;;;;;;;;;;25.91;39.78;93302.69;4992551;28;7183;-64
2023/11/29 06:39:26;;;;;;;;;;;;;;;25.91;39.14;93308.19;4945309;29;7304;-64
2023/11/29 06:42:08;;;;;;;;;;;;;;;25.92;39.23;93307.66;4932899;29;8719;-64
2023/11/29 06:44:52;;;;;;;;;;;;;;;25.93;39.83;93306.38;4948532;28;7440;-64
2023/11/29 06:47:19;;;;;;;;;;;;;;;25.92;39.19;93309.66;4958241;28;7007;-63
2023/11/29 06:49:51;;;;;;;;;;;;;;;25.91;39.22;93308.94;4989408;28;7507;-65
2023/11/29 06:52:26;;;;;;;;;;;;;;;25.90;39.84;93309.47;5010736;28;9133;-64
2023/11/29 06:54:52;;;;;;;;;;;;;;;25.91;38.96;93308.19;5007467;28;7240;-64
2023/11/29 06:57:20;;;;;;;;;;;;;;;25.92;39.25;93315.94;5000966;28;8916;-64
2023/11/29 06:59:47;;;;;;;;;;;;;;;25.93;39.84;93309.13;5008243;28;9081;-64
2023/11/29 07:02:40;;;;;;;;;;;;;;;25.95;39.52;93311.34;4996728;28;8826;-64
2023/11/29 07:05:09;;;;;;;;;;;;;;;25.96;39.43;93318.34;5012098;28;7085;-63
2023/11/29 07:07:37;;;;;;;;;;;;;;;25.96;39.18;93318.34;5013720;28;6989;-64
2023/11/29 07:10:05;;;;;;;;;;;;;;;25.95;39.17;93314.84;4998069;28;9284;-63
2023/11/29 07:12:41;;;;;;;;;;;;;;;25.92;39.52;93307.66;4997446;28;8840;-64
2023/11/29 07:15:08;;;;;;;;;;;;;;;25.92;39.19;93310.41;4998310;28;7529;-64
2023/11/29 07:17:55;;;;;;;;;;;;;;;25.92;39.55;93309.66;5069499;28;7217;-64
2023/11/29 07:20:41;;;;;;;;;;;;;;;25.91;39.10;93317.19;5052277;28;8195;-64
2023/11/29 07:23:22;;;;;;;;;;;;;;;25.89;39.81;93310.75;5054411;28;7257;-64
2023/11/29 07:25:52;;;;;;;;;;;;;;;25.88;39.72;93320.28;5048355;28;9169;-65
2023/11/29 07:28:27;;;;;;;;;;;;;;;25.86;39.64;93318.06;5057004;28;7060;-65
2023/11/29 07:31:34;;;;;;;;;;;;;;;25.85;40.27;93324.84;5057555;28;8808;-65
2023/11/29 07:34:21;;;;;;;;;;;;;;;25.88;39.54;93321.00;5052847;28;7213;-65
2023/11/29 07:37:01;;;;;;;;;;;;;;;25.86;39.61;93317.34;5053703;28;7220;-64
2023/11/29 07:39:34;;;;;;;;;;;;;;;25.84;39.60;93326.13;5054640;28;7391;-65
2023/11/29 07:42:07;;;;;;;;;;;;;;;25.88;40.34;93334.06;5049774;28;7004;-65
2023/11/29 07:45:24;;;;;;;;;;;;;;;25.89;39.58;93330.03;5070610;28;7324;-65
2023/11/29 07:47:50;;;;;;;;;;;;;;;25.89;41.18;93336.28;5072312;28;9319;-65
2023/11/29 07:50:34;;;;;;;;;;;;;;;25.94;41.34;93331.91;5070107;28;6985;-65
2023/11/29 07:53:29;;;;;;;;;;;;;;;25.92;40.98;93335.22;5050993;28;7973;-65
2023/11/29 07:56:20;;;;;;;;;;;;;;;25.91;41.30;93327.47;5055312;28;9401;-65
2023/11/29 07:58:56;;;;;;;;;;;;;;;25.92;40.62;93337.22;5075017;28;6994;-65
2023/11/29 08:01:44;;;;;;;;;;;;;;;25.90;40.84;93337.03;5069710;28;9363;-66
2023/11/29 08:04:20;;;;;;;;;;;;;;;25.94;40.58;93343.69;5067978;28;7005;-66
2023/11/29 08:07:16;;;;;;;;;;;;;;;25.93;39.98;93344.94;5046715;28;7096;-64
2023/11/29 08:09:54;;;;;;;;;;;;;;;25.93;39.58;93344.19;5063378;28;7202;-64
2023/11/29 08:12:38;;;;;;;;;;;;;;;25.90;39.46;93340.50;5053226;28;7202;-64
2023/11/29 08:15:04;;;;;;;;;;;;;;;25.90;39.86;93345.28;5069739;28;7404;-64
2023/11/29 08:17:32;;;;;;;;;;;;;;;25.90;40.56;93346.00;5053255;28;7232;-64
2023/11/29 08:19:59;;;;;;;;;;;;;;;25.90;40.07;93348.75;5069644;28;8826;-64
2023/11/29 08:22:34;;;;;;;;;;;;;;;25.91;39.62;93349.50;5053203;28;7132;-64
2023/11/29 08:25:03;;;;;;;;;;;;;;;25.89;40.05;93346.56;5070270;28;7719;-64
2023/11/29 08:27:44;;;;;;;;;;;;;;;25.82;39.92;93353.47;5053385;28;8733;-64
2023/11/29 08:30:15;;;;;;;;;;;;;;;25.78;40.50;93347.56;5066169;28;7411;-64
2023/11/29 08:33:00;;;;;;;;;;;;;;;25.82;39.96;93356.22;5071463;28;7246;-61
2023/11/29 08:35:36;;;;;;;;;;;;;;;25.83;40.73;93354.97;5052845;28;7200;-61
2023/11/29 08:38:02;;;;;;;;;;;;;;;25.82;40.12;93356.22;5069255;28;8061;-61
2023/11/29 08:41:22;;;;;;;;;;;;;;;25.86;40.51;93355.91;5054506;28;7533;-62
2023/11/29 08:44:14;;;;;;;;;;;;;;;25.86;40.63;93351.13;4993064;28;8760;-62
2023/11/29 08:47:20;;;;;;;;;;;;;;;25.82;40.57;93347.97;4975942;28;7259;-61
2023/11/29 08:50:17;;;;;;;;;;;;;;;25.83;40.65;93346.69;4968887;28;7237;-62
2023/11/29 08:52:54;;;;;;;;;;;;;;;25.79;40.62;93343.53;4992132;28;7345;-62
2023/11/29 08:55:52;;;;;;;;;;;;;;;25.84;40.37;93352.94;4992966;28;7343;-61
2023/11/29 08:58:31;;;;;;;;;;;;;;;25.86;39.87;93351.13;4913208;29;7009;-62
2023/11/29 09:00:57;;;;;;;;;;;;;;;25.85;40.15;93349.66;4911463;29;7222;-62
2023/11/29 09:03:27;;;;;;;;;;;;;;;25.88;40.52;93348.56;4901365;29;7531;-62
2023/11/29 09:06:06;;;;;;;;;;;;;;;25.85;40.17;93346.91;4910255;29;7165;-62
2023/11/29 09:08:34;;;;;;;;;;;;;;;25.87;40.42;93343.59;4914950;29;7002;-61
2023/11/29 09:11:09;;;;;;;;;;;;;;;25.87;40.92;93357.38;4915915;29;7254;-61
2023/11/29 09:14:10;;;;;;;;;;;;;;;25.91;40.27;93344.00;4913622;29;9088;-60
2023/11/29 09:16:58;;;;;;;;;;;;;;;25.90;40.34;93348.75;4914669;29;6885;-62
2023/11/29 09:20:02;;;;;;;;;;;;;;;25.90;40.37;93342.53;4954605;28;9221;-61
2023/11/29 09:22:30;;;;;;;;;;;;;;;25.88;41.23;93339.59;4961135;28;7227;-61
2023/11/29 09:24:57;;;;;;;;;;;;;;;25.87;41.30;93338.84;4959318;28;8931;-61
2023/11/29 09:27:56;;;;;;;;;;;;;;;25.90;40.09;93334.28;4957813;28;6933;-61
2023/11/29 09:30:47;;;;;;;;;;;;;;;25.91;40.00;93333.72;4930616;28;7316;-61
2023/11/29 09:33:24;;;;;;;;;;;;;;;25.90;39.40;93326.72;4933331;28;7437;-61
2023/11/29 09:36:28;;;;;;;;;;;;;;;25.89;39.26;93330.78;5001504;28;7240;-61
2023/11/29 09:39:12;;;;;;;;;;;;;;;25.91;39.31;93330.97;5010586;28;7259;-61
2023/11/29 09:41:44;;;;;;;;;;;;;;;25.92;39.49;93331.72;5000311;28;7219;-61
2023/11/29 09:44:10;;;;;;;;;;;;;;;25.93;39.60;93324.91;4994566;28;7239;-62
2023/11/29 09:47:13;;;;;;;;;;;;;;;25.92;39.03;93324.19;5011176;28;7470;-62
2023/11/29 09:50:05;;;;;;;;;;;;;;;25.86;39.81;93320.81;5018736;28;7322;-63
2023/11/29 09:53:07;;;;;;;;;;;;;;;25.82;39.96;93323.16;5010446;28;7029;-63
2023/11/29 09:55:43;;;;;;;;;;;;;;;25.84;39.16;93328.88;4912674;29;7220;-63
2023/11/29 09:58:38;;;;;;;;;;;;;;;25.88;39.62;93329.28;4910537;29;7256;-62
2023/11/29 10:01:04;;;;;;;;;;;;;;;25.87;39.80;93330.56;4904219;29;6993;-63
2023/11/29 10:03:37;;;;;;;;;;;;;;;25.90;39.69;93326.72;4906875;29;7382;-62
2023/11/29 10:10:16;;;;;;;;;;;;;;;25.89;39.40;93314.25;4961922;28;6813;-63
2023/11/29 10:12:44;;;;;;;;;;;;;;;25.92;38.64;93318.69;4917061;29;7148;-63
2023/11/29 10:15:10;;;;;;;;;;;;;;;25.94;38.75;93318.13;4933940;29;9072;-61
2023/11/29 10:17:55;;;;;;;;;;;;;;;25.92;38.35;93318.69;4933051;29;9145;-63
2023/11/29 10:20:32;;;;;;;;;;;;;;;25.94;38.96;93305.09;4919355;29;8858;-63
2023/11/29 10:23:31;;;;;;;;;;;;;;;25.95;38.68;93308.59;4936114;29;9044;-62
2023/11/29 10:25:59;;;;;;;;;;;;;;;25.92;39.24;93313.19;4828407;29;7425;-62
2023/11/29 10:28:40;;;;;;;;;;;;;;;25.94;39.21;93294.09;4828451;29;7000;-62
2023/11/29 10:31:25;;;;;;;;;;;;;;;25.95;39.05;93297.56;4846486;29;8131;-62
2023/11/29 10:34:03;;;;;;;;;;;;;;;25.96;39.66;93290.78;4865918;29;8824;-62
2023/11/29 10:36:56;;;;;;;;;;;;;;;25.98;39.25;93288.22;4865714;29;8749;-62
2023/11/29 10:39:30;;;;;;;;;;;;;;;25.99;40.22;93286.97;4873249;29;7298;-61
2023/11/29 10:42:08;;;;;;;;;;;;;;;26.05;39.46;93285.53;4880257;29;7089;-62
2023/11/29 10:44:38;;;;;;;;;;;;;;;26.06;39.64;93281.50;4880435;29;7228;-62
2023/11/29 10:47:22;;;;;;;;;;;;;;;26.07;39.71;93277.47;4877587;29;7142;-62
2023/11/29 10:50:05;;;;;;;;;;;;;;;26.09;39.44;93280.44;4938902;28;7325;-62
2023/11/29 10:53:02;;;;;;;;;;;;;;;26.11;39.75;93277.88;4975533;28;7185;-61
2023/11/29 10:55:44;;;;;;;;;;;;;;;26.14;40.04;93278.84;4969338;28;9126;-61
2023/11/29 10:58:40;;;;;;;;;;;;;;;26.13;40.22;93272.56;4951175;28;8764;-60
2023/11/29 11:01:08;;;;;;;;;;;;;;;26.15;40.13;93263.75;4987714;28;7606;-60
2023/11/29 11:04:11;;;;;;;;;;;;;;;26.14;39.88;93257.50;5053147;28;7792;-61
2023/11/29 11:07:34;;;;;;;;;;;;;;;26.16;40.08;93252.19;4992379;28;8304;-61
2023/11/29 11:10:27;;;;;;;;;;;;;;;26.19;39.67;93247.59;4978126;28;7215;-61
2023/11/29 11:13:33;;;;;;;;;;;;;;;26.21;39.99;93233.31;4974311;28;6990;-61
2023/11/29 11:16:35;;;;;;;;;;;;;;;26.25;39.97;93236.44;4979673;28;8469;-61
2023/11/29 11:19:01;;;;;;;;;;;;;;;26.23;39.18;93236.25;4955129;28;6985;-60
2023/11/29 11:21:41;;;;;;;;;;;;;;;26.24;39.67;93230.19;4959192;28;7141;-61
2023/11/29 11:24:45;;;;;;;;;;;;;;;26.26;39.55;93224.13;4958151;28;8857;-61
2023/11/29 11:27:54;;;;;;;;;;;;;;;26.26;40.03;93224.88;4962347;28;7485;-61
2023/11/29 11:30:42;;;;;;;;;;;;;;;26.25;39.57;93220.66;4971753;28;7245;-61
2023/11/29 11:33:13;;;;;;;;;;;;;;;26.22;39.67;93212.72;4967294;28;9125;-60
2023/11/29 11:36:15;;;;;;;;;;;;;;;26.26;40.23;93218.63;4966529;28;9072;-61
2023/11/29 11:39:33;;;;;;;;;;;;;;;26.25;39.87;93198.59;4894909;29;8829;-60
2023/11/29 11:42:01;;;;;;;;;;;;;;;26.28;39.51;93202.28;4965882;28;7399;-61
2023/11/29 11:45:04;;;;;;;;;;;;;;;26.29;39.71;93203.75;4957118;28;7267;-61
2023/11/29 11:47:33;;;;;;;;;;;;;;;26.25;40.33;93200.63;4923917;28;7290;-61
2023/11/29 11:50:42;;;;;;;;;;;;;;;26.29;39.85;93196.22;4933791;28;7187;-61
2023/11/29 11:53:19;;;;;;;;;;;;;;;26.28;39.66;93194.00;4935846;28;7336;-60
2023/11/29 11:56:02;;;;;;;;;;;;;;;26.29;40.01;93187.22;4916779;29;8428;-61
2023/11/29 11:58:43;;;;;;;;;;;;;;;26.32;39.68;93180.63;4933920;28;6998;-61
2023/11/29 12:01:10;;;;;;;;;;;;;;;26.31;39.68;93181.91;4923915;29;9003;-61
2023/11/29 12:03:54;;;;;;;;;;;;;;;26.31;40.56;93184.66;4939153;28;6983;-61
2023/11/29 12:06:49;;;;;;;;;;;;;;;26.33;40.20;93180.06;4907455;29;7232;-61
2023/11/29 12:09:49;;;;;;;;;;;;;;;26.34;40.12;93180.81;4931614;28;8833;-61
2023/11/29 12:12:30;;;;;;;;;;;;;;;26.34;40.12;93180.81;4935169;29;9202;-61
2023/11/29 12:15:17;;;;;;;;;;;;;;;26.35;40.43;93172.00;4980485;28;7251;-61
2023/11/29 12:17:46;;;;;;;;;;;;;;;26.36;39.64;93172.75;4992279;28;7500;-61
2023/11/29 12:20:22;;;;;;;;;;;;;;;26.41;39.31;93163.56;4982487;28;7248;-61
2023/11/29 12:23:28;;;;;;;;;;;;;;;26.43;39.56;93167.25;5049519;28;9283;-61
2023/11/29 12:26:06;;;;;;;;;;;;;;;26.45;39.22;93169.44;5035986;28;8967;-62
2023/11/29 12:29:12;;;;;;;;;;;;;;;26.50;39.40;93163.03;5021695;28;7243;-61
2023/11/29 12:31:59;;;;;;;;;;;;;;;26.54;39.07;93160.66;5022377;28;7243;-62
2023/11/29 12:34:38;;;;;;;;;;;;;;;26.59;39.11;93157.00;5023115;28;9061;-62
2023/11/29 12:40:42;;;;;;;;;;;;;;;26.55;39.06;93149.09;5024982;28;8869;-61
2023/11/29 12:43:08;;;;;;;;;;;;;;;26.58;38.82;93138.97;5031025;28;7315;-62
2023/11/29 12:45:34;;;;;;;;;;;;;;;26.60;39.31;93139.19;5031147;28;7235;-62
2023/11/29 12:48:09;;;;;;;;;;;;;;;26.62;39.20;93134.59;5017202;28;7258;-62
2023/11/29 12:50:35;;;;;;;;;;;;;;;26.65;39.05;93130.00;5029649;28;9263;-61
2023/11/29 12:53:02;;;;;;;;;;;;;;;26.65;39.25;93127.97;5030851;28;7858;-61
2023/11/29 12:55:30;;;;;;;;;;;;;;;26.68;39.10;93126.16;5011709;28;8234;-61
2023/11/29 12:57:56;;;;;;;;;;;;;;;26.70;39.23;93134.63;5034133;28;7676;-61
2023/11/29 13:00:22;;;;;;;;;;;;;;;26.70;39.10;93124.31;5014679;28;7236;-61
2023/11/29 13:03:04;;;;;;;;;;;;;;;26.72;38.82;93124.50;5043002;28;8712;-61
2023/11/29 13:05:32;;;;;;;;;;;;;;;26.76;39.13;93115.88;5056102;28;8814;-62
2023/11/29 13:08:11;;;;;;;;;;;;;;;26.76;39.28;93104.84;5060232;28;9108;-61
2023/11/29 13:10:48;;;;;;;;;;;;;;;26.79;38.81;93104.50;5051840;28;7560;-62
2023/11/29 13:13:47;;;;;;;;;;;;;;;26.83;38.91;93109.66;5059834;28;7232;-61
2023/11/29 13:16:52;;;;;;;;;;;;;;;26.87;38.80;93107.28;5055521;28;6981;-62
2023/11/29 13:19:18;;;;;;;;;;;;;;;26.87;38.65;93096.97;5055060;28;7337;-63
2023/11/29 13:21:44;;;;;;;;;;;;;;;26.90;38.37;93095.16;5067058;28;8766;-62
2023/11/29 13:24:43;;;;;;;;;;;;;;;26.90;38.46;93095.84;5062832;28;9091;-62
2023/11/29 13:27:19;;;;;;;;;;;;;;;26.90;38.17;93089.63;5071478;28;9117;-62
2023/11/29 13:30:02;;;;;;;;;;;;;;;26.90;38.78;93089.63;5067196;28;7327;-62
2023/11/29 13:32:41;;;;;;;;;;;;;;;26.93;39.21;93085.75;5061739;28;8809;-65
2023/11/29 13:35:32;;;;;;;;;;;;;;;26.96;38.90;93092.94;5057214;28;6993;-65
2023/11/29 13:38:14;;;;;;;;;;;;;;;26.99;39.11;93086.28;5044855;28;7443;-65
2023/11/29 13:40:47;;;;;;;;;;;;;;;26.98;38.93;93084.84;5036095;28;7272;-65
2023/11/29 13:43:52;;;;;;;;;;;;;;;27.01;39.20;93083.75;5050727;28;7011;-65
2023/11/29 13:46:37;;;;;;;;;;;;;;;27.04;39.10;93068.84;5075307;28;7357;-66
2023/11/29 13:49:04;;;;;;;;;;;;;;;27.01;39.17;93064.44;5057428;28;7225;-65
2023/11/29 13:52:04;;;;;;;;;;;;;;;27.00;39.31;93068.47;5059107;28;8756;-65
2023/11/29 13:54:41;;;;;;;;;;;;;;;27.01;39.26;93066.44;5002860;28;8854;-65
2023/11/29 13:57:17;;;;;;;;;;;;;;;26.96;39.30;93073.63;4994007;28;7460;-65
2023/11/29 13:59:43;;;;;;;;;;;;;;;26.92;39.42;93068.44;5006069;28;8796;-64
2023/11/29 14:02:22;;;;;;;;;;;;;;;26.94;39.06;93067.91;5005461;28;9242;-65
2023/11/29 14:04:50;;;;;;;;;;;;;;;26.92;39.46;93071.22;4995817;28;7370;-65
2023/11/29 14:07:38;;;;;;;;;;;;;;;26.95;39.16;93065.91;4983837;28;6973;-65
2023/11/29 14:10:12;;;;;;;;;;;;;;;26.95;39.41;93077.66;5003938;28;7194;-65
2023/11/29 14:12:40;;;;;;;;;;;;;;;26.95;39.38;93077.66;5010106;28;7259;-65
2023/11/29 14:15:14;;;;;;;;;;;;;;;26.92;39.13;93073.25;4992416;28;9054;-65